logo
Rechercher aéroport 
image banner adimage banner adimage banner ad
image banner ad

KLVK - Livermore Muni

Situé à Livermore, United States

ICAO - LVK, IATA - LVK

Données fournies par Airmate  

Information générale

Coordonnées: N37°41'36" W121°49'13"
Élévation : 399 feet MSL.
Variation magnétique : 16° East
Évalué:
Voir évaluations:
[VIEW]
Voir autres Aéroports à California

Données opérationnelles

Special qualification required
Heure actuelle UTC:
Heure actuelle locale:
Météo
METAR: KLVK 011705Z 27004KT 10SM FEW010 17/13 A2985 RMK AO2 T01720128
TAF: KLVK 011713Z 0117/0212 VRB03KT P6SM FEW010 FM012100 29010KT P6SM SKC FM020900 29005KT P6SM SKC
Voir NOTAMs / SUP AIP / TFR affectant cet aéroport [VIEW]
Fréquences de communication: [VIEW]

Pistes:

Identifiant RWYQFULongueur (ft)Largeur (ft)SurfaceLDA (ft)
07R90°269975ASPH
25L270°269975ASPH
07L90°5253100ASPH
25R270°5253100ASPH

Coordonnées de l'aéroport

Adresse: Livermore United States

Autres services d'aviation

Écoles de pilotage

Attitude Aviation, Inc.

Attitude Aviation, Inc.
attav@aol.com+1(925)456-2276

Red Sky Aviation, Llc

Red Sky Aviation, Llc

Atp Flight School (800-All-Atps)

Atp Flight School (800-All-Atps)
info@allatps.com+1(800)255-2877

Jato Aviation

Jato Aviation
ops@jatoaviation.com+1(650)654-5286

Vue satellite de KLVK